sensor_id;sensor_type;location;lat;lon;timestamp;pressure;altitude;pressure_sealevel;temperature;humidity
77288;BME280;66345;42.694;23.346;2023-03-23T00:02:27;95512.22;;;5.80;85.43
77288;BME280;66345;42.694;23.346;2023-03-23T00:04:54;95504.91;;;5.92;84.63
77288;BME280;66345;42.694;23.346;2023-03-23T00:07:20;95507.03;;;5.97;83.40
77288;BME280;66345;42.694;23.346;2023-03-23T00:09:48;95503.47;;;6.14;83.68
77288;BME280;66345;42.694;23.346;2023-03-23T00:12:19;95504.59;;;6.11;83.65
77288;BME280;66345;42.694;23.346;2023-03-23T00:14:44;95506.13;;;6.22;83.14
77288;BME280;66345;42.694;23.346;2023-03-23T00:17:10;95507.78;;;6.31;82.71
77288;BME280;66345;42.694;23.346;2023-03-23T00:19:39;95500.03;;;6.14;83.16
77288;BME280;66345;42.694;23.346;2023-03-23T00:22:16;95502.47;;;6.07;83.04
77288;BME280;66345;42.694;23.346;2023-03-23T00:24:44;95505.50;;;6.28;82.55
77288;BME280;66345;42.694;23.346;2023-03-23T00:27:10;95513.38;;;6.20;82.37
77288;BME280;66345;42.694;23.346;2023-03-23T00:29:40;95519.28;;;6.14;83.18
77288;BME280;66345;42.694;23.346;2023-03-23T00:32:06;95512.88;;;6.25;82.88
77288;BME280;66345;42.694;23.346;2023-03-23T00:34:32;95526.59;;;6.36;82.39
77288;BME280;66345;42.694;23.346;2023-03-23T00:36:59;95523.28;;;6.34;82.37
77288;BME280;66345;42.694;23.346;2023-03-23T00:39:27;95525.44;;;6.47;82.76
77288;BME280;66345;42.694;23.346;2023-03-23T00:41:53;95525.44;;;6.39;82.63
77288;BME280;66345;42.694;23.346;2023-03-23T00:44:28;95527.06;;;6.40;82.89
77288;BME280;66345;42.694;23.346;2023-03-23T00:46:55;95532.66;;;6.29;83.25
77288;BME280;66345;42.694;23.346;2023-03-23T00:49:22;95529.81;;;6.14;83.20
77288;BME280;66345;42.694;23.346;2023-03-23T00:51:51;95532.44;;;6.06;83.30
77288;BME280;66345;42.694;23.346;2023-03-23T00:54:16;95530.44;;;6.00;84.01
77288;BME280;66345;42.694;23.346;2023-03-23T00:56:42;95529.94;;;6.04;84.09
77288;BME280;66345;42.694;23.346;2023-03-23T00:59:08;95532.28;;;6.16;83.01
77288;BME280;66345;42.694;23.346;2023-03-23T01:01:34;95543.03;;;6.30;82.99
77288;BME280;66345;42.694;23.346;2023-03-23T01:04:02;95537.78;;;6.38;82.19
77288;BME280;66345;42.694;23.346;2023-03-23T01:06:30;95535.13;;;6.30;82.11
77288;BME280;66345;42.694;23.346;2023-03-23T01:08:57;95532.47;;;6.14;82.37
77288;BME280;66345;42.694;23.346;2023-03-23T01:11:22;95536.09;;;6.21;82.48
77288;BME280;66345;42.694;23.346;2023-03-23T01:13:49;95533.69;;;5.94;83.06
77288;BME280;66345;42.694;23.346;2023-03-23T01:16:14;95527.28;;;5.96;83.20
77288;BME280;66345;42.694;23.346;2023-03-23T01:18:40;95527.44;;;5.95;84.23
77288;BME280;66345;42.694;23.346;2023-03-23T01:21:11;95517.50;;;5.89;85.14
77288;BME280;66345;42.694;23.346;2023-03-23T01:23:37;95525.38;;;5.80;85.37
77288;BME280;66345;42.694;23.346;2023-03-23T01:26:08;95517.69;;;5.87;85.36
77288;BME280;66345;42.694;23.346;2023-03-23T01:28:35;95518.94;;;6.09;85.20
77288;BME280;66345;42.694;23.346;2023-03-23T01:31:07;95522.84;;;5.97;85.16
77288;BME280;66345;42.694;23.346;2023-03-23T01:33:33;95511.34;;;5.98;84.87
77288;BME280;66345;42.694;23.346;2023-03-23T01:36:08;95510.94;;;5.84;86.18
77288;BME280;66345;42.694;23.346;2023-03-23T01:38:35;95504.91;;;5.92;86.07
77288;BME280;66345;42.694;23.346;2023-03-23T01:41:02;95509.88;;;6.11;85.50
77288;BME280;66345;42.694;23.346;2023-03-23T01:43:28;95515.31;;;6.10;84.11
77288;BME280;66345;42.694;23.346;2023-03-23T01:45:53;95501.22;;;5.85;85.07
77288;BME280;66345;42.694;23.346;2023-03-23T01:48:28;95503.03;;;5.84;85.29
77288;BME280;66345;42.694;23.346;2023-03-23T01:50:58;95502.09;;;5.94;85.71
77288;BME280;66345;42.694;23.346;2023-03-23T01:53:29;95499.03;;;5.72;85.13
77288;BME280;66345;42.694;23.346;2023-03-23T01:55:56;95504.41;;;5.63;85.29
77288;BME280;66345;42.694;23.346;2023-03-23T01:58:26;95506.53;;;5.59;86.33
77288;BME280;66345;42.694;23.346;2023-03-23T02:00:54;95498.22;;;5.80;86.08
77288;BME280;66345;42.694;23.346;2023-03-23T02:03:21;95500.47;;;6.01;85.20
77288;BME280;66345;42.694;23.346;2023-03-23T02:05:48;95502.84;;;6.20;84.44
77288;BME280;66345;42.694;23.346;2023-03-23T02:08:16;95502.84;;;6.20;83.81
77288;BME280;66345;42.694;23.346;2023-03-23T02:10:44;95504.88;;;6.51;82.97
77288;BME280;66345;42.694;23.346;2023-03-23T02:13:11;95508.34;;;6.59;82.72
77288;BME280;66345;42.694;23.346;2023-03-23T02:27:05;95509.16;;;6.44;82.40
77288;BME280;66345;42.694;23.346;2023-03-23T02:34:48;95502.16;;;6.18;82.10
77288;BME280;66345;42.694;23.346;2023-03-23T02:37:21;95505.16;;;6.23;81.65
77288;BME280;66345;42.694;23.346;2023-03-23T02:39:57;95512.69;;;6.10;82.01
77288;BME280;66345;42.694;23.346;2023-03-23T02:42:29;95518.91;;;6.01;81.68
77288;BME280;66345;42.694;23.346;2023-03-23T02:44:58;95518.09;;;6.00;81.73
77288;BME280;66345;42.694;23.346;2023-03-23T02:47:29;95515.91;;;5.96;81.39
77288;BME280;66345;42.694;23.346;2023-03-23T02:49:57;95519.63;;;5.77;81.79
77288;BME280;66345;42.694;23.346;2023-03-23T02:52:29;95527.00;;;5.73;81.72
77288;BME280;66345;42.694;23.346;2023-03-23T02:54:56;95531.25;;;5.66;81.32
77288;BME280;66345;42.694;23.346;2023-03-23T02:57:25;95535.19;;;5.62;81.30
77288;BME280;66345;42.694;23.346;2023-03-23T02:59:51;95528.38;;;5.51;81.42
77288;BME280;66345;42.694;23.346;2023-03-23T03:02:36;95526.25;;;5.55;82.34
77288;BME280;66345;42.694;23.346;2023-03-23T03:10:49;95550.47;;;5.33;82.04
77288;BME280;66345;42.694;23.346;2023-03-23T03:18:43;95559.06;;;5.43;82.91
77288;BME280;66345;42.694;23.346;2023-03-23T03:21:12;95558.94;;;5.44;81.89
77288;BME280;66345;42.694;23.346;2023-03-23T03:23:40;95559.03;;;5.35;82.72
77288;BME280;66345;42.694;23.346;2023-03-23T03:26:10;95559.66;;;5.54;81.50
77288;BME280;66345;42.694;23.346;2023-03-23T03:28:37;95560.81;;;5.52;81.74
77288;BME280;66345;42.694;23.346;2023-03-23T03:31:04;95570.28;;;5.45;82.29
77288;BME280;66345;42.694;23.346;2023-03-23T03:33:31;95558.03;;;5.36;82.57
77288;BME280;66345;42.694;23.346;2023-03-23T03:36:01;95565.13;;;5.61;82.09
77288;BME280;66345;42.694;23.346;2023-03-23T03:38:28;95561.94;;;5.83;80.47
77288;BME280;66345;42.694;23.346;2023-03-23T03:40:54;95567.94;;;5.94;80.84
77288;BME280;66345;42.694;23.346;2023-03-23T03:43:20;95566.19;;;5.76;80.71
77288;BME280;66345;42.694;23.346;2023-03-23T03:45:45;95567.13;;;5.93;80.52
77288;BME280;66345;42.694;23.346;2023-03-23T03:48:11;95562.88;;;6.00;80.66
77288;BME280;66345;42.694;23.346;2023-03-23T03:50:37;95554.94;;;5.92;80.20
77288;BME280;66345;42.694;23.346;2023-03-23T03:53:04;95547.47;;;5.88;80.64
77288;BME280;66345;42.694;23.346;2023-03-23T03:55:31;95550.84;;;5.72;80.83
77288;BME280;66345;42.694;23.346;2023-03-23T03:58:03;95553.72;;;5.52;82.39
77288;BME280;66345;42.694;23.346;2023-03-23T04:00:29;95551.06;;;5.44;81.99
77288;BME280;66345;42.694;23.346;2023-03-23T04:02:55;95565.31;;;5.16;83.38
77288;BME280;66345;42.694;23.346;2023-03-23T04:05:21;95554.19;;;5.48;82.50
77288;BME280;66345;42.694;23.346;2023-03-23T04:07:48;95551.91;;;5.53;81.49
77288;BME280;66345;42.694;23.346;2023-03-23T04:10:18;95549.44;;;5.85;81.36
77288;BME280;66345;42.694;23.346;2023-03-23T04:12:47;95550.16;;;5.96;80.51
77288;BME280;66345;42.694;23.346;2023-03-23T04:15:12;95540.06;;;5.83;79.65
77288;BME280;66345;42.694;23.346;2023-03-23T04:17:38;95543.94;;;5.71;81.20
77288;BME280;66345;42.694;23.346;2023-03-23T04:20:06;95553.53;;;5.46;81.75
77288;BME280;66345;42.694;23.346;2023-03-23T04:22:37;95558.72;;;5.64;81.73
77288;BME280;66345;42.694;23.346;2023-03-23T04:25:03;95559.13;;;5.77;81.45
77288;BME280;66345;42.694;23.346;2023-03-23T04:27:31;95550.06;;;5.79;80.98
77288;BME280;66345;42.694;23.346;2023-03-23T04:29:57;95552.19;;;5.76;81.21
77288;BME280;66345;42.694;23.346;2023-03-23T04:32:27;95553.28;;;5.91;81.03
77288;BME280;66345;42.694;23.346;2023-03-23T04:34:55;95553.63;;;5.96;80.11
77288;BME280;66345;42.694;23.346;2023-03-23T04:37:23;95561.44;;;6.14;79.66
77288;BME280;66345;42.694;23.346;2023-03-23T04:39:55;95561.25;;;6.07;79.57
77288;BME280;66345;42.694;23.346;2023-03-23T04:42:29;95568.03;;;6.18;79.89
77288;BME280;66345;42.694;23.346;2023-03-23T04:44:56;95558.19;;;6.28;79.11
77288;BME280;66345;42.694;23.346;2023-03-23T04:47:22;95562.78;;;6.34;79.02
77288;BME280;66345;42.694;23.346;2023-03-23T04:49:48;95566.59;;;6.32;79.03
77288;BME280;66345;42.694;23.346;2023-03-23T04:52:13;95565.44;;;6.34;78.53
77288;BME280;66345;42.694;23.346;2023-03-23T04:54:39;95565.28;;;6.36;78.91
77288;BME280;66345;42.694;23.346;2023-03-23T04:57:05;95565.16;;;6.46;79.00
77288;BME280;66345;42.694;23.346;2023-03-23T04:59:30;95572.69;;;6.40;79.23
77288;BME280;66345;42.694;23.346;2023-03-23T05:01:56;95583.16;;;6.58;78.10
77288;BME280;66345;42.694;23.346;2023-03-23T05:04:22;95567.00;;;6.61;78.29
77288;BME280;66345;42.694;23.346;2023-03-23T05:06:50;95580.50;;;6.50;78.75
77288;BME280;66345;42.694;23.346;2023-03-23T05:09:16;95583.25;;;6.49;78.50
77288;BME280;66345;42.694;23.346;2023-03-23T05:11:41;95573.72;;;6.48;78.73
77288;BME280;66345;42.694;23.346;2023-03-23T05:14:07;95583.47;;;6.72;77.68
77288;BME280;66345;42.694;23.346;2023-03-23T05:16:32;95580.34;;;6.60;77.58
77288;BME280;66345;42.694;23.346;2023-03-23T05:18:57;95583.28;;;6.57;78.24
77288;BME280;66345;42.694;23.346;2023-03-23T05:21:23;95589.94;;;6.85;78.01
77288;BME280;66345;42.694;23.346;2023-03-23T05:23:48;95594.34;;;6.60;77.40
77288;BME280;66345;42.694;23.346;2023-03-23T05:26:22;95600.53;;;6.35;78.99
77288;BME280;66345;42.694;23.346;2023-03-23T05:28:54;95588.25;;;6.60;77.71
77288;BME280;66345;42.694;23.346;2023-03-23T05:31:21;95600.03;;;6.31;77.84
77288;BME280;66345;42.694;23.346;2023-03-23T05:33:46;95604.63;;;6.29;79.01
77288;BME280;66345;42.694;23.346;2023-03-23T05:36:12;95601.59;;;6.58;77.44
77288;BME280;66345;42.694;23.346;2023-03-23T05:38:42;95608.88;;;6.73;77.78
77288;BME280;66345;42.694;23.346;2023-03-23T05:41:14;95608.03;;;6.72;77.38
77288;BME280;66345;42.694;23.346;2023-03-23T05:43:40;95604.75;;;6.78;76.71
77288;BME280;66345;42.694;23.346;2023-03-23T05:46:06;95604.78;;;7.03;75.99
77288;BME280;66345;42.694;23.346;2023-03-23T05:48:32;95607.09;;;7.22;75.38
77288;BME280;66345;42.694;23.346;2023-03-23T05:50:58;95611.06;;;7.10;75.55
77288;BME280;66345;42.694;23.346;2023-03-23T05:53:24;95605.13;;;7.16;75.06
77288;BME280;66345;42.694;23.346;2023-03-23T05:55:49;95620.78;;;7.50;74.30
77288;BME280;66345;42.694;23.346;2023-03-23T05:58:15;95618.66;;;7.45;73.91
77288;BME280;66345;42.694;23.346;2023-03-23T06:00:40;95614.81;;;7.81;73.87
77288;BME280;66345;42.694;23.346;2023-03-23T06:03:06;95607.59;;;8.14;72.33
77288;BME280;66345;42.694;23.346;2023-03-23T06:05:32;95618.53;;;8.11;71.75
77288;BME280;66345;42.694;23.346;2023-03-23T06:07:58;95607.09;;;8.18;70.71
77288;BME280;66345;42.694;23.346;2023-03-23T06:10:24;95625.81;;;8.09;71.54
77288;BME280;66345;42.694;23.346;2023-03-23T06:12:50;95620.00;;;8.13;70.72
77288;BME280;66345;42.694;23.346;2023-03-23T06:15:17;95612.19;;;8.28;70.11
77288;BME280;66345;42.694;23.346;2023-03-23T06:17:42;95614.22;;;8.18;70.35
77288;BME280;66345;42.694;23.346;2023-03-23T06:20:09;95617.69;;;8.18;70.87
77288;BME280;66345;42.694;23.346;2023-03-23T06:22:39;95616.44;;;8.45;69.59
77288;BME280;66345;42.694;23.346;2023-03-23T06:25:07;95616.94;;;8.49;69.66
77288;BME280;66345;42.694;23.346;2023-03-23T06:27:33;95616.44;;;8.45;69.80
77288;BME280;66345;42.694;23.346;2023-03-23T06:29:59;95622.53;;;8.85;68.87
77288;BME280;66345;42.694;23.346;2023-03-23T06:32:25;95613.81;;;9.83;65.93
77288;BME280;66345;42.694;23.346;2023-03-23T06:34:53;95618.78;;;11.60;59.64
77288;BME280;66345;42.694;23.346;2023-03-23T06:37:19;95614.22;;;12.38;56.81
77288;BME280;66345;42.694;23.346;2023-03-23T06:39:45;95605.19;;;13.68;53.18
77288;BME280;66345;42.694;23.346;2023-03-23T06:42:11;95602.94;;;14.89;49.77
77288;BME280;66345;42.694;23.346;2023-03-23T06:44:37;95611.88;;;15.77;47.48
77288;BME280;66345;42.694;23.346;2023-03-23T06:47:04;95611.56;;;16.35;45.27
77288;BME280;66345;42.694;23.346;2023-03-23T06:49:29;95615.06;;;16.54;44.06
77288;BME280;66345;42.694;23.346;2023-03-23T06:51:55;95620.28;;;17.04;43.23
77288;BME280;66345;42.694;23.346;2023-03-23T06:54:25;95620.38;;;17.88;42.00
77288;BME280;66345;42.694;23.346;2023-03-23T06:56:51;95627.50;;;17.94;41.69
77288;BME280;66345;42.694;23.346;2023-03-23T06:59:16;95627.66;;;18.46;40.63
77288;BME280;66345;42.694;23.346;2023-03-23T07:01:42;95631.75;;;19.52;37.88
77288;BME280;66345;42.694;23.346;2023-03-23T07:04:07;95621.44;;;18.92;38.36
77288;BME280;66345;42.694;23.346;2023-03-23T07:06:33;95627.28;;;17.54;41.87
77288;BME280;66345;42.694;23.346;2023-03-23T07:08:58;95624.38;;;19.48;38.64
77288;BME280;66345;42.694;23.346;2023-03-23T07:11:23;95630.53;;;20.39;35.57
77288;BME280;66345;42.694;23.346;2023-03-23T07:13:49;95628.31;;;21.30;34.40
77288;BME280;66345;42.694;23.346;2023-03-23T07:16:16;95619.63;;;21.06;34.40
77288;BME280;66345;42.694;23.346;2023-03-23T07:18:42;95627.03;;;19.88;35.97
77288;BME280;66345;42.694;23.346;2023-03-23T07:21:08;95626.19;;;21.32;34.13
77288;BME280;66345;42.694;23.346;2023-03-23T07:23:33;95631.81;;;20.87;35.19
77288;BME280;66345;42.694;23.346;2023-03-23T07:25:59;95617.66;;;21.23;34.08
77288;BME280;66345;42.694;23.346;2023-03-23T07:28:24;95625.47;;;20.42;35.41
77288;BME280;66345;42.694;23.346;2023-03-23T07:30:51;95626.53;;;22.22;32.23
77288;BME280;66345;42.694;23.346;2023-03-23T07:33:16;95623.50;;;22.92;30.97
77288;BME280;66345;42.694;23.346;2023-03-23T07:35:42;95633.41;;;20.66;34.70
77288;BME280;66345;42.694;23.346;2023-03-23T07:38:07;95622.56;;;22.02;32.66
77288;BME280;66345;42.694;23.346;2023-03-23T07:40:35;95627.19;;;22.76;31.94
77288;BME280;66345;42.694;23.346;2023-03-23T07:43:02;95626.03;;;24.02;29.21
77288;BME280;66345;42.694;23.346;2023-03-23T07:45:28;95631.41;;;23.72;29.68
77288;BME280;66345;42.694;23.346;2023-03-23T07:47:54;95627.13;;;24.32;29.01
77288;BME280;66345;42.694;23.346;2023-03-23T07:50:20;95634.47;;;24.11;28.94
77288;BME280;66345;42.694;23.346;2023-03-23T07:52:50;95630.69;;;24.38;28.31
77288;BME280;66345;42.694;23.346;2023-03-23T07:55:18;95637.94;;;24.83;27.68
77288;BME280;66345;42.694;23.346;2023-03-23T07:57:45;95627.47;;;25.95;26.70
77288;BME280;66345;42.694;23.346;2023-03-23T08:00:13;95629.06;;;25.96;26.85
77288;BME280;66345;42.694;23.346;2023-03-23T08:02:46;95630.13;;;25.56;26.65
77288;BME280;66345;42.694;23.346;2023-03-23T08:05:14;95632.78;;;26.50;26.21
77288;BME280;66345;42.694;23.346;2023-03-23T08:07:40;95640.44;;;24.44;29.04
77288;BME280;66345;42.694;23.346;2023-03-23T08:10:07;95635.78;;;25.60;26.63
77288;BME280;66345;42.694;23.346;2023-03-23T08:12:36;95639.22;;;25.86;25.73
77288;BME280;66345;42.694;23.346;2023-03-23T08:15:03;95632.09;;;26.63;24.56
77288;BME280;66345;42.694;23.346;2023-03-23T08:17:29;95640.47;;;26.38;25.54
77288;BME280;66345;42.694;23.346;2023-03-23T08:19:54;95633.84;;;24.85;27.55
77288;BME280;66345;42.694;23.346;2023-03-23T08:22:20;95627.81;;;26.57;25.39
77288;BME280;66345;42.694;23.346;2023-03-23T08:24:46;95626.09;;;27.67;23.91
77288;BME280;66345;42.694;23.346;2023-03-23T08:27:11;95635.03;;;26.72;24.15
77288;BME280;66345;42.694;23.346;2023-03-23T08:29:37;95627.69;;;24.44;27.92
77288;BME280;66345;42.694;23.346;2023-03-23T08:32:04;95621.06;;;27.07;24.61
77288;BME280;66345;42.694;23.346;2023-03-23T08:34:29;95625.63;;;28.35;22.68
77288;BME280;66345;42.694;23.346;2023-03-23T08:36:56;95626.13;;;27.81;23.47
77288;BME280;66345;42.694;23.346;2023-03-23T08:39:21;95615.84;;;27.97;24.12
77288;BME280;66345;42.694;23.346;2023-03-23T08:41:48;95603.75;;;29.92;21.30
77288;BME280;66345;42.694;23.346;2023-03-23T08:44:14;95615.09;;;27.48;23.00
77288;BME280;66345;42.694;23.346;2023-03-23T08:46:41;95620.72;;;25.28;26.71
77288;BME280;66345;42.694;23.346;2023-03-23T08:49:06;95619.28;;;26.69;24.42
77288;BME280;66345;42.694;23.346;2023-03-23T08:51:32;95617.22;;;27.32;22.94
77288;BME280;66345;42.694;23.346;2023-03-23T08:53:58;95611.69;;;27.99;21.76
77288;BME280;66345;42.694;23.346;2023-03-23T08:56:24;95617.09;;;30.07;19.68
77288;BME280;66345;42.694;23.346;2023-03-23T08:58:49;95604.06;;;29.90;19.54
77288;BME280;66345;42.694;23.346;2023-03-23T09:01:15;95603.31;;;30.79;19.24
77288;BME280;66345;42.694;23.346;2023-03-23T09:03:41;95621.78;;;26.26;22.08
77288;BME280;66345;42.694;23.346;2023-03-23T09:06:08;95627.66;;;24.70;24.26
77288;BME280;66345;42.694;23.346;2023-03-23T09:08:34;95613.53;;;27.66;21.81
77288;BME280;66345;42.694;23.346;2023-03-23T09:11:06;95612.72;;;28.03;20.35
77288;BME280;66345;42.694;23.346;2023-03-23T09:13:33;95609.41;;;27.69;20.34
77288;BME280;66345;42.694;23.346;2023-03-23T09:15:58;95610.38;;;28.34;20.03
77288;BME280;66345;42.694;23.346;2023-03-23T09:18:24;95620.16;;;26.59;21.90
77288;BME280;66345;42.694;23.346;2023-03-23T09:20:50;95613.19;;;27.06;21.66
77288;BME280;66345;42.694;23.346;2023-03-23T09:23:16;95616.91;;;28.98;19.77
77288;BME280;66345;42.694;23.346;2023-03-23T09:25:42;95620.63;;;25.49;23.28
77288;BME280;66345;42.694;23.346;2023-03-23T09:28:08;95628.59;;;22.09;27.32
77288;BME280;66345;42.694;23.346;2023-03-23T09:30:34;95612.75;;;23.91;26.12
77288;BME280;66345;42.694;23.346;2023-03-23T09:33:02;95607.81;;;25.54;23.69
77288;BME280;66345;42.694;23.346;2023-03-23T09:35:29;95612.50;;;24.13;24.89
77288;BME280;66345;42.694;23.346;2023-03-23T09:37:56;95611.91;;;22.18;26.67
77288;BME280;66345;42.694;23.346;2023-03-23T09:45:51;95597.63;;;22.64;27.33
77288;BME280;66345;42.694;23.346;2023-03-23T09:51:31;95607.59;;;19.00;31.88
77288;BME280;66345;42.694;23.346;2023-03-23T09:54:23;95598.25;;;20.61;30.39
77288;BME280;66345;42.694;23.346;2023-03-23T09:56:50;95596.06;;;21.45;28.56
77288;BME280;66345;42.694;23.346;2023-03-23T09:59:42;95598.03;;;21.06;28.69
77288;BME280;66345;42.694;23.346;2023-03-23T10:02:15;95593.25;;;22.16;27.40
77288;BME280;66345;42.694;23.346;2023-03-23T10:04:50;95585.91;;;24.09;25.15
77288;BME280;66345;42.694;23.346;2023-03-23T10:07:23;95580.69;;;25.49;23.04
77288;BME280;66345;42.694;23.346;2023-03-23T10:09:52;95571.75;;;27.71;20.73
77288;BME280;66345;42.694;23.346;2023-03-23T10:12:29;95584.34;;;26.47;21.63
77288;BME280;66345;42.694;23.346;2023-03-23T10:15:04;95585.03;;;27.77;21.08
77288;BME280;66345;42.694;23.346;2023-03-23T10:20:19;95590.38;;;23.33;26.10
77288;BME280;66345;42.694;23.346;2023-03-23T10:23:02;95567.16;;;27.66;21.32
77288;BME280;66345;42.694;23.346;2023-03-23T10:25:33;95564.63;;;25.97;23.23
77288;BME280;66345;42.694;23.346;2023-03-23T10:28:10;95568.03;;;29.11;19.07
77288;BME280;66345;42.694;23.346;2023-03-23T10:30:40;95570.63;;;27.10;21.45
77288;BME280;66345;42.694;23.346;2023-03-23T10:33:37;95565.22;;;26.81;22.48
77288;BME280;66345;42.694;23.346;2023-03-23T10:36:08;95560.28;;;28.06;20.83
77288;BME280;66345;42.694;23.346;2023-03-23T10:38:43;95573.97;;;23.75;25.57
77288;BME280;66345;42.694;23.346;2023-03-23T10:41:15;95559.97;;;24.94;24.45
77288;BME280;66345;42.694;23.346;2023-03-23T10:43:42;95573.72;;;23.82;25.42
77288;BME280;66345;42.694;23.346;2023-03-23T10:49:06;95569.03;;;20.36;30.99
77288;BME280;66345;42.694;23.346;2023-03-23T10:51:39;95564.19;;;21.69;28.80
77288;BME280;66345;42.694;23.346;2023-03-23T10:54:05;95562.94;;;18.24;34.16
77288;BME280;66345;42.694;23.346;2023-03-23T10:56:42;95570.56;;;17.20;36.73
77288;BME280;66345;42.694;23.346;2023-03-23T10:59:20;95573.47;;;16.88;37.34
77288;BME280;66345;42.694;23.346;2023-03-23T11:01:50;95578.09;;;16.01;38.67
77288;BME280;66345;42.694;23.346;2023-03-23T11:04:18;95562.09;;;16.56;38.54
77288;BME280;66345;42.694;23.346;2023-03-23T11:06:51;95572.75;;;16.81;37.58
77288;BME280;66345;42.694;23.346;2023-03-23T11:09:19;95568.28;;;17.35;36.75
77288;BME280;66345;42.694;23.346;2023-03-23T11:11:54;95552.66;;;17.32;37.30
77288;BME280;66345;42.694;23.346;2023-03-23T11:14:34;95546.19;;;17.10;37.72
77288;BME280;66345;42.694;23.346;2023-03-23T11:17:18;95544.47;;;17.15;36.93
77288;BME280;66345;42.694;23.346;2023-03-23T11:19:45;95541.16;;;16.47;39.41
77288;BME280;66345;42.694;23.346;2023-03-23T11:22:19;95541.84;;;16.42;39.49
77288;BME280;66345;42.694;23.346;2023-03-23T11:24:49;95542.88;;;16.59;39.05
77288;BME280;66345;42.694;23.346;2023-03-23T11:27:17;95532.25;;;16.53;39.31
77288;BME280;66345;42.694;23.346;2023-03-23T11:29:54;95528.91;;;17.06;37.32
77288;BME280;66345;42.694;23.346;2023-03-23T11:32:26;95525.31;;;16.82;37.55
77288;BME280;66345;42.694;23.346;2023-03-23T11:34:58;95529.38;;;17.14;37.62
77288;BME280;66345;42.694;23.346;2023-03-23T11:37:41;95517.13;;;17.60;37.22
77288;BME280;66345;42.694;23.346;2023-03-23T11:42:42;95504.59;;;16.89;38.16
77288;BME280;66345;42.694;23.346;2023-03-23T11:45:24;95510.38;;;17.46;36.80
77288;BME280;66345;42.694;23.346;2023-03-23T11:50:55;95516.34;;;16.21;39.17
77288;BME280;66345;42.694;23.346;2023-03-23T11:59:16;95494.66;;;17.08;37.99
77288;BME280;66345;42.694;23.346;2023-03-23T12:01:53;95501.59;;;16.97;37.43
77288;BME280;66345;42.694;23.346;2023-03-23T12:12:57;95477.34;;;16.44;39.38
77288;BME280;66345;42.694;23.346;2023-03-23T12:15:38;95480.00;;;16.80;38.11
77288;BME280;66345;42.694;23.346;2023-03-23T12:52:43;95470.94;;;15.71;40.29
77288;BME280;66345;42.694;23.346;2023-03-23T12:55:19;95473.91;;;15.57;40.35
77288;BME280;66345;42.694;23.346;2023-03-23T12:57:58;95461.16;;;15.65;40.45
77288;BME280;66345;42.694;23.346;2023-03-23T13:00:29;95469.97;;;15.66;40.17
77288;BME280;66345;42.694;23.346;2023-03-23T13:03:15;95460.09;;;15.85;39.95
77288;BME280;66345;42.694;23.346;2023-03-23T13:05:51;95452.28;;;16.01;40.55
77288;BME280;66345;42.694;23.346;2023-03-23T13:08:31;95456.63;;;16.21;39.48
77288;BME280;66345;42.694;23.346;2023-03-23T13:11:03;95445.09;;;16.02;40.51
77288;BME280;66345;42.694;23.346;2023-03-23T13:13:47;95447.03;;;15.95;40.03
77288;BME280;66345;42.694;23.346;2023-03-23T13:16:18;95448.81;;;16.01;39.89
77288;BME280;66345;42.694;23.346;2023-03-23T13:22:06;95443.22;;;16.21;40.17
77288;BME280;66345;42.694;23.346;2023-03-23T13:24:37;95436.69;;;16.17;39.42
77288;BME280;66345;42.694;23.346;2023-03-23T13:27:05;95443.72;;;16.29;39.24
77288;BME280;66345;42.694;23.346;2023-03-23T13:29:33;95424.88;;;16.06;39.54
77288;BME280;66345;42.694;23.346;2023-03-23T13:32:15;95438.69;;;15.85;40.04
77288;BME280;66345;42.694;23.346;2023-03-23T13:34:42;95438.75;;;15.78;40.14
77288;BME280;66345;42.694;23.346;2023-03-23T13:37:23;95431.84;;;16.07;39.21
77288;BME280;66345;42.694;23.346;2023-03-23T13:42:34;95422.81;;;16.38;38.86
77288;BME280;66345;42.694;23.346;2023-03-23T13:50:51;95435.00;;;16.52;39.15
77288;BME280;66345;42.694;23.346;2023-03-23T13:53:24;95422.81;;;16.38;39.67
77288;BME280;66345;42.694;23.346;2023-03-23T13:59:07;95415.06;;;16.00;40.68
77288;BME280;66345;42.694;23.346;2023-03-23T14:01:39;95431.34;;;15.98;40.51
77288;BME280;66345;42.694;23.346;2023-03-23T14:04:12;95414.78;;;15.90;40.23
77288;BME280;66345;42.694;23.346;2023-03-23T14:06:40;95413.34;;;16.05;40.48
77288;BME280;66345;42.694;23.346;2023-03-23T14:09:36;95405.28;;;16.24;40.24
77288;BME280;66345;42.694;23.346;2023-03-23T14:12:05;95412.50;;;16.23;39.80
77288;BME280;66345;42.694;23.346;2023-03-23T14:15:01;95408.59;;;15.89;40.54
77288;BME280;66345;42.694;23.346;2023-03-23T14:17:31;95395.81;;;15.91;41.02
77288;BME280;66345;42.694;23.346;2023-03-23T14:19:59;95409.31;;;16.15;40.53
77288;BME280;66345;42.694;23.346;2023-03-23T14:22:31;95394.84;;;16.04;40.40
77288;BME280;66345;42.694;23.346;2023-03-23T14:25:26;95405.91;;;16.07;40.57
77288;BME280;66345;42.694;23.346;2023-03-23T14:27:53;95404.78;;;16.15;40.67
77288;BME280;66345;42.694;23.346;2023-03-23T14:30:21;95402.47;;;16.00;40.57
77288;BME280;66345;42.694;23.346;2023-03-23T14:32:47;95402.63;;;16.05;41.05
77288;BME280;66345;42.694;23.346;2023-03-23T14:37:46;95396.56;;;15.62;41.37
77288;BME280;66345;42.694;23.346;2023-03-23T14:40:15;95403.44;;;15.51;41.79
77288;BME280;66345;42.694;23.346;2023-03-23T14:42:41;95397.31;;;15.44;41.66
77288;BME280;66345;42.694;23.346;2023-03-23T14:45:12;95403.72;;;15.43;41.96
77288;BME280;66345;42.694;23.346;2023-03-23T14:47:43;95396.28;;;15.45;41.50
77288;BME280;66345;42.694;23.346;2023-03-23T14:50:30;95412.91;;;15.47;41.59
77288;BME280;66345;42.694;23.346;2023-03-23T14:53:03;95393.44;;;15.40;42.23
77288;BME280;66345;42.694;23.346;2023-03-23T14:55:34;95396.72;;;15.67;42.05
77288;BME280;66345;42.694;23.346;2023-03-23T14:58:07;95394.69;;;15.62;41.54
77288;BME280;66345;42.694;23.346;2023-03-23T15:00:36;95388.84;;;15.47;41.98